createdAt,value
2023-05-22T04:44:23.093Z,100099.03
2023-05-22T04:47:38.648Z,100100.06
2023-05-22T04:55:54.631Z,100108.34
2023-05-22T05:23:11.571Z,100107.44
2023-05-22T05:47:39.097Z,100106.94
2023-05-22T05:54:48.026Z,100111.25
2023-05-22T06:39:09.966Z,100123.44
2023-05-22T06:42:56.534Z,100112.09
2023-05-22T06:51:10.590Z,100110.25
2023-05-22T06:55:23.917Z,100104.72
2023-05-22T07:03:08.303Z,100098.56
2023-05-22T07:10:38.316Z,100105.63
2023-05-22T07:54:21.834Z,100125.97
2023-05-22T08:01:31.718Z,100123.47
2023-05-22T08:05:08.521Z,100132.84
2023-05-22T08:12:33.259Z,100133.06
2023-05-22T08:20:58.158Z,100138.06
2023-05-22T08:24:54.783Z,100132.03
2023-05-22T08:48:27.570Z,100142.37
2023-05-22T08:59:50.742Z,100140.56
2023-05-22T09:16:49.467Z,100142.09
2023-05-22T09:20:42.958Z,100144.03
2023-05-22T09:24:04.481Z,100134.69
2023-05-22T09:27:20.355Z,100132.78
2023-05-22T09:30:42.887Z,100138.03
2023-05-22T09:38:35.530Z,100126.34
2023-05-22T09:41:50.806Z,100121.69
2023-05-22T09:45:09.649Z,100119.44
2023-05-22T09:48:32.195Z,100119.13
2023-05-22T09:51:56.940Z,100110.91
2023-05-22T09:55:16.578Z,100114.66
2023-05-22T09:58:41.740Z,100119.72
2023-05-22T10:02:10.614Z,100099.31
2023-05-22T10:09:04.198Z,100106.31
2023-05-22T10:12:23.677Z,100091.03
2023-05-22T10:15:43.475Z,100090.28
2023-05-22T10:19:15.757Z,100087.41
2023-05-22T10:22:45.108Z,100086.66
2023-05-22T10:26:02.965Z,100088.06
2023-05-22T10:29:29.842Z,100083.78
2023-05-22T10:32:47.652Z,100081.09
2023-05-22T10:36:20.412Z,100075.78
2023-05-22T10:39:47.209Z,100070.69
2023-05-22T10:43:05.056Z,100078.25
2023-05-22T10:46:21.412Z,100069.91
2023-05-22T10:54:13.434Z,100063.81
2023-05-22T10:57:27.860Z,100059.78
2023-05-22T11:00:42.911Z,100054.97
2023-05-22T11:04:37.498Z,100046.75
2023-05-22T11:07:56.283Z,100047.47
2023-05-22T11:11:16.918Z,100035.75
2023-05-22T11:14:32.561Z,100034.16
2023-05-22T11:21:38.329Z,100026.41
2023-05-22T11:25:36.765Z,100019.87
2023-05-22T11:28:55.826Z,100017.84
2023-05-22T11:32:11.561Z,100013.53
2023-05-22T11:35:46.461Z,100009.66
2023-05-22T11:39:04.127Z,100009.44
2023-05-22T11:42:29.537Z,100012.00
2023-05-22T11:45:47.806Z,100006.34
2023-05-22T11:49:24.136Z,100008.91
2023-05-22T11:52:51.938Z,100009.19
2023-05-22T11:56:09.471Z,100008.03
2023-05-22T11:59:25.270Z,100003.09
2023-05-22T12:06:58.247Z,99993.50
2023-05-22T12:10:20.092Z,99984.34
2023-05-22T12:13:46.476Z,99990.12
2023-05-22T12:26:37.160Z,99984.56
2023-05-22T12:41:51.575Z,99961.41
2023-05-22T12:49:05.362Z,99940.69
2023-05-22T12:52:27.081Z,99943.72
2023-05-22T12:55:44.281Z,99936.69
2023-05-22T13:02:44.597Z,99930.00
2023-05-22T13:13:45.111Z,99919.34
2023-05-22T13:17:18.312Z,99914.00
2023-05-22T13:20:42.926Z,99916.28
2023-05-22T13:24:02.005Z,99909.84
2023-05-22T13:27:20.506Z,99913.78
2023-05-22T13:30:35.380Z,99901.97
2023-05-22T13:33:52.443Z,99896.47
2023-05-22T13:37:18.145Z,99900.81
2023-05-22T13:40:33.038Z,99894.97
2023-05-22T13:43:56.329Z,99890.53
2023-05-22T13:47:13.715Z,99893.66
2023-05-22T13:50:32.359Z,99887.75
2023-05-22T13:53:47.148Z,99885.72
2023-05-22T13:57:02.748Z,99887.78
2023-05-22T14:00:17.762Z,99886.69
2023-05-22T14:03:32.110Z,99875.53
2023-05-22T14:06:48.056Z,99882.62
2023-05-22T14:10:02.343Z,99882.69
2023-05-22T14:13:16.947Z,99884.44
2023-05-22T14:16:31.279Z,99874.66
2023-05-22T14:19:45.690Z,99874.88
2023-05-22T14:23:01.722Z,99869.72
2023-05-22T14:26:17.389Z,99869.41
2023-05-22T14:29:33.793Z,99866.13
2023-05-22T14:32:48.895Z,99863.91
2023-05-22T14:36:03.279Z,99862.66
2023-05-22T14:39:19.110Z,99863.59
2023-05-22T14:42:33.711Z,99860.91
2023-05-22T14:45:49.608Z,99857.78
2023-05-22T14:49:04.043Z,99861.38
2023-05-22T14:52:19.041Z,99847.06
2023-05-22T14:55:34.864Z,99847.47
